Van, Kentucky
Current Conditions -  °F | °C
As of 2:55 PM on Friday 26 Dec 2014 (Local Time) from KLNP Reporting Station
Clear Clear  
Wind Chill: 54°   Ceiling: Unl
Heat Index: 54°   Visibility: 10mi
Dew Point: 14°   Wind: 8mph
Humidity: 21%   Direction: 220°SW
Pressure: 30.25"   Gusts: NA
Location:  37.1283°N, 82.8498°W
Report Text: KLNP 261955Z AUTO 22007KT 10SM CLR 12/M10 A3025 RMK AO2
Loading
Personal Weather Stations






























Interactive Weather Map New forecast layout! Learn more

10-Day Weather Forecast

Advertisements
Track Severe Weather on mobile